createdAt,value
2023-04-07T00:01:13.097Z,8.00
2023-04-07T00:03:48.151Z,7.67
2023-04-07T00:06:23.090Z,7.57
2023-04-07T00:08:57.973Z,8.00
2023-04-07T00:11:32.938Z,6.70
2023-04-07T00:14:07.905Z,9.53
2023-04-07T00:16:42.754Z,7.67
2023-04-07T00:19:17.652Z,8.10
2023-04-07T00:21:53.605Z,7.43
2023-04-07T00:24:34.459Z,8.80
2023-04-07T00:27:09.872Z,8.70
2023-04-07T00:29:46.494Z,8.30
2023-04-07T00:32:22.487Z,7.80
2023-04-07T00:34:57.495Z,8.23
2023-04-07T00:37:32.346Z,8.77
2023-04-07T00:40:08.144Z,7.93
2023-04-07T00:42:43.055Z,7.90
2023-04-07T00:45:17.951Z,6.83
2023-04-07T00:47:53.054Z,6.40
2023-04-07T00:50:27.963Z,8.80
2023-04-07T00:53:02.861Z,7.03
2023-04-07T00:55:37.979Z,6.90
2023-04-07T00:58:12.932Z,5.83
2023-04-07T01:01:16.958Z,6.30
2023-04-07T01:04:12.368Z,6.77
2023-04-07T01:06:51.557Z,7.40
2023-04-07T01:09:46.667Z,6.40
2023-04-07T01:13:03.352Z,6.27
2023-04-07T01:15:40.073Z,7.00
2023-04-07T01:18:29.830Z,6.30
2023-04-07T01:21:14.544Z,7.40
2023-04-07T01:24:07.456Z,7.80
2023-04-07T01:26:43.064Z,5.80
2023-04-07T01:29:35.657Z,6.30
2023-04-07T01:32:12.481Z,7.93
2023-04-07T01:34:49.842Z,6.53
2023-04-07T01:37:27.253Z,7.10
2023-04-07T01:40:04.870Z,6.07
2023-04-07T01:42:41.031Z,6.60
2023-04-07T01:45:18.344Z,8.63
2023-04-07T01:47:54.874Z,8.70
2023-04-07T01:50:30.429Z,8.17
2023-04-07T01:53:06.005Z,7.93
2023-04-07T01:55:42.766Z,7.13
2023-04-07T01:58:17.886Z,5.70
2023-04-07T02:00:52.842Z,7.50
2023-04-07T02:03:42.541Z,7.87
2023-04-07T02:06:23.429Z,7.90
2023-04-07T02:09:06.754Z,6.00
2023-04-07T02:11:44.061Z,9.30
2023-04-07T02:14:21.349Z,6.33
2023-04-07T02:17:09.863Z,6.93
2023-04-07T02:19:46.206Z,6.83
2023-04-07T02:22:21.729Z,6.77
2023-04-07T02:24:56.661Z,8.60
2023-04-07T02:27:34.994Z,7.43
2023-04-07T02:30:10.970Z,8.30
2023-04-07T02:32:46.116Z,7.70
2023-04-07T02:35:22.946Z,7.63
2023-04-07T02:37:57.833Z,7.40
2023-04-07T02:40:32.660Z,9.97
2023-04-07T02:43:07.543Z,8.83
2023-04-07T02:45:42.432Z,7.80
2023-04-07T02:48:17.397Z,6.80
2023-04-07T02:50:52.276Z,7.37
2023-04-07T02:53:27.160Z,9.47
2023-04-07T02:56:02.132Z,7.83
2023-04-07T02:58:37.067Z,6.80
2023-04-07T03:01:12.057Z,7.20
2023-04-07T03:03:47.929Z,6.87
2023-04-07T03:06:31.544Z,8.07
2023-04-07T03:09:13.403Z,7.30
2023-04-07T03:11:48.266Z,8.67
2023-04-07T03:14:23.164Z,7.70
2023-04-07T03:16:58.698Z,9.93
2023-04-07T03:19:33.672Z,8.90
2023-04-07T03:22:08.577Z,9.30
2023-04-07T03:24:48.222Z,8.70
2023-04-07T03:27:23.196Z,7.47
2023-04-07T03:29:58.245Z,10.90
2023-04-07T03:32:35.255Z,7.80
2023-04-07T03:35:10.631Z,8.67
2023-04-07T03:37:45.884Z,8.50
2023-04-07T03:40:24.656Z,7.97
2023-04-07T03:42:59.596Z,9.00
2023-04-07T03:45:34.494Z,9.23
2023-04-07T03:48:12.693Z,8.70
2023-04-07T03:50:58.750Z,8.60
2023-04-07T03:53:33.809Z,8.40
2023-04-07T03:56:15.071Z,7.70
2023-04-07T03:58:53.110Z,8.97
2023-04-07T04:01:38.221Z,8.53
2023-04-07T04:04:20.837Z,11.07
2023-04-07T04:06:57.182Z,8.03
2023-04-07T04:09:43.255Z,9.13
2023-04-07T04:12:19.526Z,9.70
2023-04-07T04:15:09.215Z,9.27
2023-04-07T04:17:44.798Z,6.73
2023-04-07T04:20:22.234Z,8.80
2023-04-07T04:22:58.771Z,8.97
2023-04-07T04:25:34.085Z,8.30
2023-04-07T04:28:12.572Z,8.23
2023-04-07T04:30:49.872Z,10.40
2023-04-07T04:33:25.643Z,8.40
2023-04-07T04:36:05.865Z,11.20
2023-04-07T04:38:41.376Z,11.63
2023-04-07T04:41:28.875Z,8.17
2023-04-07T04:44:05.005Z,8.30
2023-04-07T04:46:40.334Z,8.77
2023-04-07T04:49:16.344Z,7.13
2023-04-07T04:51:52.107Z,9.90
2023-04-07T04:54:27.653Z,9.57
2023-04-07T04:57:03.192Z,12.70
2023-04-07T04:59:38.256Z,8.83
2023-04-07T05:02:14.006Z,9.43
2023-04-07T05:04:49.087Z,8.30
2023-04-07T05:07:30.566Z,8.07
2023-04-07T05:10:09.521Z,8.23
2023-04-07T05:12:48.570Z,10.83
2023-04-07T05:15:23.483Z,6.87
2023-04-07T05:17:59.165Z,9.77
2023-04-07T05:20:36.223Z,10.53
2023-04-07T05:23:11.260Z,10.37
2023-04-07T05:25:46.334Z,9.33
2023-04-07T05:28:21.257Z,9.70
2023-04-07T05:30:56.945Z,7.30
2023-04-07T05:33:36.602Z,10.70
2023-04-07T05:36:11.645Z,8.53
2023-04-07T05:38:49.002Z,7.53
2023-04-07T05:41:27.019Z,7.80
2023-04-07T05:44:03.475Z,9.43
2023-04-07T05:46:42.344Z,8.63
2023-04-07T05:49:19.943Z,9.00
2023-04-07T05:51:58.487Z,9.07
2023-04-07T05:54:33.378Z,8.93
2023-04-07T05:57:10.829Z,8.43
2023-04-07T05:59:51.000Z,8.23
2023-04-07T06:02:26.620Z,8.43
2023-04-07T06:05:02.674Z,8.87
2023-04-07T06:07:39.193Z,8.97
2023-04-07T06:10:14.993Z,8.23
2023-04-07T06:12:50.066Z,9.47
2023-04-07T06:15:25.493Z,9.33
2023-04-07T06:18:00.934Z,10.50
2023-04-07T06:20:36.196Z,8.53
2023-04-07T06:23:11.046Z,7.60
2023-04-07T06:25:46.582Z,7.53
2023-04-07T06:28:21.666Z,9.10
2023-04-07T06:30:58.279Z,9.70
2023-04-07T06:33:34.228Z,9.63
2023-04-07T06:36:10.524Z,8.73
2023-04-07T06:38:45.633Z,7.83
2023-04-07T06:41:20.906Z,9.50
2023-04-07T06:43:55.845Z,8.30
2023-04-07T06:46:31.107Z,8.30
2023-04-07T06:49:06.163Z,8.90
2023-04-07T06:51:41.176Z,10.33
2023-04-07T06:54:16.230Z,10.70
2023-04-07T06:56:53.450Z,7.43
2023-04-07T06:59:29.189Z,7.60
2023-04-07T07:02:04.364Z,8.10
2023-04-07T07:04:39.417Z,7.30
2023-04-07T07:07:14.303Z,14.80
2023-04-07T07:09:49.144Z,10.10
2023-04-07T07:12:24.026Z,8.87
2023-04-07T07:14:58.881Z,7.47
2023-04-07T07:17:34.230Z,9.77
2023-04-07T07:20:10.204Z,11.40
2023-04-07T07:22:45.095Z,9.30
2023-04-07T07:25:20.029Z,10.47
2023-04-07T07:27:55.019Z,9.47
2023-04-07T07:30:29.955Z,9.50
2023-04-07T07:33:04.933Z,8.60
2023-04-07T07:35:40.697Z,9.17
2023-04-07T07:38:15.777Z,8.80
2023-04-07T07:40:50.903Z,10.13
2023-04-07T07:43:25.808Z,9.00
2023-04-07T07:46:01.034Z,13.17
2023-04-07T07:48:36.096Z,9.10
2023-04-07T07:51:11.488Z,8.80
2023-04-07T07:53:46.810Z,10.50
2023-04-07T07:56:22.489Z,8.17
2023-04-07T07:58:58.403Z,10.57
2023-04-07T08:01:33.491Z,11.33
2023-04-07T08:04:09.051Z,8.80
2023-04-07T08:06:44.254Z,7.90
2023-04-07T08:09:20.160Z,9.70
2023-04-07T08:11:55.139Z,7.17
2023-04-07T08:14:30.400Z,10.27
2023-04-07T08:17:05.440Z,8.27
2023-04-07T08:19:40.427Z,9.43
2023-04-07T08:22:16.508Z,7.53
2023-04-07T08:24:51.367Z,5.70
2023-04-07T08:27:26.295Z,6.40
2023-04-07T08:30:04.119Z,6.20
2023-04-07T08:32:45.086Z,8.20
2023-04-07T08:35:20.041Z,7.73
2023-04-07T08:37:55.005Z,5.70
2023-04-07T08:40:29.921Z,5.83
2023-04-07T08:43:10.070Z,5.63
2023-04-07T08:45:47.150Z,6.30
2023-04-07T08:48:27.366Z,5.20
2023-04-07T08:51:08.436Z,5.63
2023-04-07T08:53:51.324Z,5.60
2023-04-07T08:56:26.670Z,5.70
2023-04-07T08:59:02.833Z,7.47
2023-04-07T09:01:38.294Z,5.80
2023-04-07T09:04:13.847Z,4.70
2023-04-07T09:06:49.571Z,4.50
2023-04-07T09:09:24.696Z,4.87
2023-04-07T09:12:00.733Z,7.50
2023-04-07T09:14:35.724Z,7.13
2023-04-07T09:17:10.719Z,6.67
2023-04-07T09:19:45.878Z,6.83
2023-04-07T09:22:42.945Z,6.83
2023-04-07T09:25:23.907Z,6.27
2023-04-07T09:28:02.206Z,5.47
2023-04-07T09:30:37.311Z,6.90
2023-04-07T09:33:16.678Z,7.00
2023-04-07T09:35:53.479Z,7.40
2023-04-07T09:38:40.580Z,6.80
2023-04-07T09:41:17.211Z,6.47
2023-04-07T09:43:57.475Z,7.20
2023-04-07T09:46:32.906Z,6.10
2023-04-07T09:49:08.185Z,6.83
2023-04-07T09:51:57.689Z,6.20
2023-04-07T09:54:41.712Z,6.63
2023-04-07T09:57:18.612Z,4.60
2023-04-07T09:59:55.550Z,6.33
2023-04-07T10:02:31.402Z,7.33
2023-04-07T10:05:07.407Z,5.23
2023-04-07T10:07:43.469Z,7.30
2023-04-07T10:10:18.407Z,4.73
2023-04-07T10:12:54.295Z,5.97
2023-04-07T10:15:30.556Z,6.20
2023-04-07T10:18:07.372Z,4.37
2023-04-07T10:20:43.842Z,5.60
2023-04-07T10:23:32.106Z,5.30
2023-04-07T10:26:08.508Z,6.97
2023-04-07T10:28:46.915Z,5.07
2023-04-07T10:31:23.588Z,5.77
2023-04-07T10:33:59.032Z,5.80
2023-04-07T10:36:34.817Z,7.33
2023-04-07T10:39:09.649Z,5.60
2023-04-07T10:41:44.482Z,8.37
2023-04-07T10:44:41.898Z,5.73
2023-04-07T10:47:17.236Z,6.10
2023-04-07T10:50:19.280Z,5.03
2023-04-07T10:53:10.699Z,4.30
2023-04-07T10:55:46.648Z,4.10
2023-04-07T10:58:32.697Z,5.83
2023-04-07T11:01:07.798Z,3.93
2023-04-07T11:03:57.331Z,4.83
2023-04-07T11:06:32.665Z,3.00
2023-04-07T11:09:21.115Z,3.10
2023-04-07T11:11:56.471Z,4.00
2023-04-07T11:14:33.528Z,4.30
2023-04-07T11:17:15.697Z,5.27
2023-04-07T11:19:54.144Z,5.40
2023-04-07T11:22:30.591Z,5.43
2023-04-07T11:25:22.740Z,4.33
2023-04-07T11:27:57.820Z,4.60
2023-04-07T11:30:33.809Z,5.03
2023-04-07T11:33:09.152Z,4.60
2023-04-07T11:35:56.853Z,3.60
2023-04-07T11:38:38.966Z,4.13
2023-04-07T11:41:15.930Z,3.80
2023-04-07T11:44:11.320Z,4.30
2023-04-07T11:47:03.511Z,6.70
2023-04-07T11:49:49.078Z,4.50
2023-04-07T11:52:23.976Z,6.60
2023-04-07T11:55:00.230Z,4.47
2023-04-07T11:57:35.125Z,4.33
2023-04-07T12:00:12.529Z,4.40
2023-04-07T12:02:47.730Z,3.17
2023-04-07T12:05:24.891Z,4.33
2023-04-07T12:07:59.859Z,4.40
2023-04-07T12:10:35.140Z,3.10
2023-04-07T12:13:10.134Z,3.00
2023-04-07T12:15:45.108Z,2.73
2023-04-07T12:18:21.539Z,3.10
2023-04-07T12:20:58.922Z,3.77
2023-04-07T12:23:36.860Z,4.00
2023-04-07T12:26:12.095Z,3.40
2023-04-07T12:28:47.061Z,6.40
2023-04-07T12:31:22.118Z,4.57
2023-04-07T12:33:57.039Z,2.93
2023-04-07T12:36:33.769Z,3.13
2023-04-07T12:39:11.669Z,3.00
2023-04-07T12:41:47.695Z,3.37
2023-04-07T12:44:22.638Z,2.70
2023-04-07T12:46:57.602Z,2.20
2023-04-07T12:49:32.558Z,3.43
2023-04-07T12:52:07.451Z,2.40
2023-04-07T12:54:44.158Z,1.90
2023-04-07T12:57:19.249Z,1.67
2023-04-07T12:59:54.504Z,2.53
2023-04-07T13:02:29.500Z,1.70
2023-04-07T13:05:04.914Z,1.70
2023-04-07T13:07:39.828Z,2.97
2023-04-07T13:10:14.854Z,1.47
2023-04-07T13:12:50.883Z,3.23
2023-04-07T13:15:26.332Z,1.80
2023-04-07T13:18:02.246Z,1.67
2023-04-07T13:20:38.440Z,1.80
2023-04-07T13:23:13.800Z,2.73
2023-04-07T13:25:49.027Z,2.43
2023-04-07T13:28:24.582Z,2.83
2023-04-07T13:30:59.539Z,2.27
2023-04-07T13:33:35.372Z,4.10
2023-04-07T13:36:10.386Z,1.70
2023-04-07T13:38:45.469Z,2.43
2023-04-07T13:41:21.474Z,2.33
2023-04-07T13:43:56.648Z,3.57
2023-04-07T13:46:31.813Z,2.40
2023-04-07T13:49:07.503Z,2.57
2023-04-07T13:51:42.585Z,1.97
2023-04-07T13:54:18.423Z,2.53
2023-04-07T13:56:53.883Z,1.60
2023-04-07T13:59:28.719Z,2.80
2023-04-07T14:02:03.750Z,2.07
2023-04-07T14:04:38.791Z,2.43
2023-04-07T14:07:13.840Z,2.50
2023-04-07T14:09:49.238Z,2.47
2023-04-07T14:12:24.424Z,2.77
2023-04-07T14:14:59.403Z,2.53
2023-04-07T14:17:34.273Z,3.40
2023-04-07T14:20:09.887Z,3.37
2023-04-07T14:22:44.866Z,3.17
2023-04-07T14:25:19.692Z,3.00
2023-04-07T14:27:54.547Z,2.90
2023-04-07T14:30:30.819Z,2.60
2023-04-07T14:33:05.990Z,2.77
2023-04-07T14:35:41.234Z,3.17
2023-04-07T14:38:16.168Z,3.00
2023-04-07T14:40:52.514Z,3.83
2023-04-07T14:43:27.950Z,2.90
2023-04-07T14:46:02.962Z,2.70
2023-04-07T14:48:37.946Z,2.97
2023-04-07T14:51:13.694Z,3.43
2023-04-07T14:53:56.222Z,2.70
2023-04-07T14:56:31.601Z,2.73
2023-04-07T14:59:06.605Z,3.10
2023-04-07T15:01:41.600Z,3.40
2023-04-07T15:04:16.633Z,3.60
2023-04-07T15:06:51.979Z,2.50
2023-04-07T15:09:26.876Z,3.37
2023-04-07T15:12:02.206Z,4.33
2023-04-07T15:14:37.084Z,3.57
2023-04-07T15:17:12.565Z,4.43
2023-04-07T15:19:47.917Z,3.50
2023-04-07T15:22:22.842Z,3.83
2023-04-07T15:24:57.714Z,6.77
2023-04-07T15:27:32.570Z,4.23
2023-04-07T15:30:08.330Z,3.53
2023-04-07T15:32:57.093Z,2.87
2023-04-07T15:35:32.043Z,3.63
2023-04-07T15:38:06.995Z,3.67
2023-04-07T15:40:42.230Z,6.00
2023-04-07T15:43:17.152Z,2.37
2023-04-07T15:45:52.049Z,1.93
2023-04-07T15:48:27.729Z,2.37
2023-04-07T15:51:02.679Z,2.83
2023-04-07T15:53:37.536Z,3.17
2023-04-07T15:56:13.829Z,2.70
2023-04-07T15:58:49.565Z,2.23
2023-04-07T16:01:24.889Z,3.43
2023-04-07T16:03:59.880Z,1.80
2023-04-07T16:06:34.912Z,1.60
2023-04-07T16:09:09.755Z,3.47
2023-04-07T16:11:44.857Z,3.40
2023-04-07T16:14:19.687Z,3.30
2023-04-07T16:16:58.605Z,2.43
2023-04-07T16:19:33.594Z,2.27
2023-04-07T16:22:08.458Z,1.90
2023-04-07T16:24:43.662Z,1.80
2023-04-07T16:27:18.501Z,2.57
2023-04-07T16:29:53.343Z,1.80
2023-04-07T16:32:28.232Z,1.83
2023-04-07T16:35:03.850Z,1.60
2023-04-07T16:37:39.982Z,1.60
2023-04-07T16:40:14.874Z,1.70
2023-04-07T16:42:51.653Z,1.60
2023-04-07T16:45:26.567Z,3.50
2023-04-07T16:48:02.301Z,2.33
2023-04-07T16:50:42.794Z,2.30
2023-04-07T16:53:21.071Z,2.83
2023-04-07T16:55:56.505Z,2.60
2023-04-07T16:58:31.465Z,3.27
2023-04-07T17:01:06.503Z,2.80
2023-04-07T17:03:42.082Z,2.03
2023-04-07T17:06:17.177Z,2.90
2023-04-07T17:08:52.025Z,2.33
2023-04-07T17:11:26.891Z,3.00
2023-04-07T17:14:01.820Z,2.40
2023-04-07T17:16:36.668Z,2.93
2023-04-07T17:19:11.523Z,2.63
2023-04-07T17:21:47.194Z,2.17
2023-04-07T17:24:22.817Z,4.70
2023-04-07T17:26:57.849Z,9.00
2023-04-07T17:29:33.607Z,2.70
2023-04-07T17:32:08.465Z,3.70
2023-04-07T17:34:43.333Z,2.90
2023-04-07T17:37:18.679Z,2.90
2023-04-07T17:39:53.696Z,2.03
2023-04-07T17:42:28.655Z,2.80
2023-04-07T17:45:03.815Z,3.33
2023-04-07T17:47:38.810Z,2.53
2023-04-07T17:50:14.542Z,3.37
2023-04-07T17:52:50.046Z,3.30
2023-04-07T17:55:25.285Z,3.20
2023-04-07T17:58:01.251Z,3.50
2023-04-07T18:00:36.335Z,3.63
2023-04-07T18:03:11.696Z,3.57
2023-04-07T18:05:47.061Z,3.23
2023-04-07T18:08:22.890Z,3.30
2023-04-07T18:10:57.811Z,3.80
2023-04-07T18:13:32.773Z,3.87
2023-04-07T18:16:09.625Z,3.57
2023-04-07T18:18:44.591Z,3.70
2023-04-07T18:21:19.570Z,3.33
2023-04-07T18:23:55.818Z,3.17
2023-04-07T18:26:30.664Z,2.80
2023-04-07T18:29:08.923Z,2.00
2023-04-07T18:31:45.426Z,1.90
2023-04-07T18:34:21.655Z,2.33
2023-04-07T18:36:56.897Z,2.17
2023-04-07T18:39:32.744Z,2.70
2023-04-07T18:42:07.724Z,2.07
2023-04-07T18:44:42.638Z,2.47
2023-04-07T18:47:17.552Z,2.10
2023-04-07T18:49:53.573Z,1.90
2023-04-07T18:52:28.467Z,2.13
2023-04-07T18:55:04.003Z,1.73
2023-04-07T18:57:39.540Z,1.80
2023-04-07T19:00:14.559Z,2.37
2023-04-07T19:02:49.675Z,2.13
2023-04-07T19:05:26.029Z,2.20
2023-04-07T19:08:01.137Z,2.23
2023-04-07T19:10:36.104Z,2.17
2023-04-07T19:13:11.216Z,2.67
2023-04-07T19:15:47.232Z,2.00
2023-04-07T19:18:22.218Z,2.43
2023-04-07T19:20:57.233Z,2.10
2023-04-07T19:23:33.079Z,2.20
2023-04-07T19:26:11.536Z,2.57
2023-04-07T19:28:46.461Z,2.30
2023-04-07T19:31:22.231Z,2.90
2023-04-07T19:33:58.487Z,5.50
2023-04-07T19:36:33.492Z,2.97
2023-04-07T19:39:08.385Z,2.70
2023-04-07T19:41:43.296Z,3.40
2023-04-07T19:44:18.884Z,3.67
2023-04-07T19:46:53.726Z,2.80
2023-04-07T19:49:28.656Z,3.87
2023-04-07T19:52:04.219Z,3.47
2023-04-07T19:54:40.817Z,3.73
2023-04-07T19:57:16.407Z,4.10
2023-04-07T19:59:51.746Z,4.27
2023-04-07T20:02:27.933Z,3.87
2023-04-07T20:05:03.458Z,4.00
2023-04-07T20:07:38.375Z,4.13
2023-04-07T20:10:13.221Z,3.33
2023-04-07T20:12:48.079Z,3.73
2023-04-07T20:15:24.772Z,3.60
2023-04-07T20:18:00.202Z,3.93
2023-04-07T20:20:36.803Z,4.23
2023-04-07T20:23:12.702Z,4.50
2023-04-07T20:25:47.540Z,4.00
2023-04-07T20:28:23.039Z,3.60
2023-04-07T20:30:57.962Z,2.97
2023-04-07T20:33:32.903Z,4.07
2023-04-07T20:36:07.769Z,3.67
2023-04-07T20:38:43.853Z,4.73
2023-04-07T20:41:18.764Z,3.80
2023-04-07T20:43:54.881Z,5.40
2023-04-07T20:46:30.029Z,5.40
2023-04-07T20:49:07.754Z,4.07
2023-04-07T20:51:42.609Z,4.83
2023-04-07T20:54:17.510Z,4.90
2023-04-07T20:56:52.617Z,4.90
2023-04-07T20:59:28.734Z,5.43
2023-04-07T21:02:03.814Z,4.47
2023-04-07T21:04:38.954Z,5.33
2023-04-07T21:07:13.860Z,5.33
2023-04-07T21:09:48.756Z,5.47
2023-04-07T21:12:23.644Z,4.20
2023-04-07T21:14:58.564Z,4.13
2023-04-07T21:17:33.704Z,4.23
2023-04-07T21:20:09.530Z,4.80
2023-04-07T21:22:44.806Z,5.70
2023-04-07T21:25:19.761Z,4.93
2023-04-07T21:27:55.552Z,5.10
2023-04-07T21:30:31.217Z,5.00
2023-04-07T21:33:06.204Z,5.10
2023-04-07T21:35:41.304Z,5.00
2023-04-07T21:38:16.505Z,4.70
2023-04-07T21:40:51.369Z,4.60
2023-04-07T21:43:28.743Z,4.23
2023-04-07T21:46:03.706Z,5.60
2023-04-07T21:48:38.611Z,5.27
2023-04-07T21:51:13.457Z,4.90
2023-04-07T21:53:48.317Z,5.63
2023-04-07T21:56:23.609Z,4.37
2023-04-07T21:58:58.637Z,5.47
2023-04-07T22:01:33.774Z,5.27
2023-04-07T22:04:08.834Z,5.50
2023-04-07T22:06:43.939Z,5.50
2023-04-07T22:09:18.899Z,5.73
2023-04-07T22:11:54.064Z,6.43
2023-04-07T22:14:28.928Z,5.60
2023-04-07T22:17:03.828Z,5.53
2023-04-07T22:19:38.740Z,5.80
2023-04-07T22:22:13.741Z,6.13
2023-04-07T22:24:48.611Z,5.10
2023-04-07T22:27:23.486Z,5.70
2023-04-07T22:29:58.675Z,5.20
2023-04-07T22:32:33.599Z,5.53
2023-04-07T22:35:09.188Z,4.87
2023-04-07T22:37:44.177Z,6.07
2023-04-07T22:40:19.069Z,6.30
2023-04-07T22:42:53.957Z,5.50
2023-04-07T22:45:29.301Z,5.27
2023-04-07T22:48:04.402Z,5.73
2023-04-07T22:50:39.415Z,6.83
2023-04-07T22:53:14.334Z,5.93
2023-04-07T22:55:49.772Z,7.60
2023-04-07T22:58:24.755Z,6.33
2023-04-07T23:00:59.821Z,6.53
2023-04-07T23:03:34.876Z,5.63
2023-04-07T23:06:09.752Z,6.33
2023-04-07T23:08:45.458Z,7.00
2023-04-07T23:11:22.465Z,7.40
2023-04-07T23:13:57.433Z,6.70
2023-04-07T23:16:33.846Z,8.00
2023-04-07T23:19:11.836Z,9.00
2023-04-07T23:21:46.899Z,8.00
2023-04-07T23:24:21.779Z,8.70
2023-04-07T23:26:56.963Z,8.83
2023-04-07T23:29:32.442Z,11.10
2023-04-07T23:32:07.398Z,10.37
2023-04-07T23:34:42.308Z,8.63
2023-04-07T23:37:17.185Z,8.23
2023-04-07T23:39:52.061Z,9.37
2023-04-07T23:42:26.929Z,8.53
2023-04-07T23:45:01.773Z,9.07
2023-04-07T23:47:36.694Z,10.07
2023-04-07T23:50:11.911Z,10.77
2023-04-07T23:52:46.894Z,9.13
2023-04-07T23:55:22.041Z,9.00
2023-04-07T23:57:57.135Z,14.37
